Marigold, California
Current Conditions -  °F | °C
As of 5:58 AM on Wednesday 28 Jan 2015 (Local Time) from KRIV Reporting Station
Scattered Clouds Scattered Clouds  
Wind Chill: 46°   Ceiling: Unl
Heat Index: 46°   Visibility: 10mi
Dew Point: 44°   Wind: 1mph
Humidity: 94%   Direction: 280°W
Pressure: 30.16"   Gusts: NA
Location:  34.0057°N, 117.15°W
Report Text: KRIV 281358Z AUTO 28001KT 10SM SCT170 08/07 A3016 RMK AO2 SLP212 T00770068
Loading
Personal Weather Stations






























Interactive Weather Map New forecast layout! Learn more

10-Day Weather Forecast

Advertisements
Track Severe Weather on mobile